sensor_id;sensor_type;location;lat;lon;timestamp;temperature;humidity
64652;HTU21D;51062;45.120;37.660;2022-07-09T00:02:14;23.23;76.14
64652;HTU21D;51062;45.120;37.660;2022-07-09T00:04:41;23.24;76.17
64652;HTU21D;51062;45.120;37.660;2022-07-09T00:07:07;23.25;76.15
64652;HTU21D;51062;45.120;37.660;2022-07-09T00:09:33;23.24;76.11
64652;HTU21D;51062;45.120;37.660;2022-07-09T00:11:59;23.24;76.10
64652;HTU21D;51062;45.120;37.660;2022-07-09T00:14:25;23.24;76.14
64652;HTU21D;51062;45.120;37.660;2022-07-09T00:16:51;23.23;76.13
64652;HTU21D;51062;45.120;37.660;2022-07-09T00:19:17;23.24;76.16
64652;HTU21D;51062;45.120;37.660;2022-07-09T00:21:43;23.21;76.22
64652;HTU21D;51062;45.120;37.660;2022-07-09T00:24:10;23.23;76.24
64652;HTU21D;51062;45.120;37.660;2022-07-09T00:26:36;23.23;76.18
64652;HTU21D;51062;45.120;37.660;2022-07-09T00:29:02;23.26;76.15
64652;HTU21D;51062;45.120;37.660;2022-07-09T00:31:28;23.24;76.20
64652;HTU21D;51062;45.120;37.660;2022-07-09T00:33:54;23.20;76.24
64652;HTU21D;51062;45.120;37.660;2022-07-09T00:36:20;23.17;76.31
64652;HTU21D;51062;45.120;37.660;2022-07-09T00:38:46;23.16;76.41
64652;HTU21D;51062;45.120;37.660;2022-07-09T00:41:13;23.14;76.43
64652;HTU21D;51062;45.120;37.660;2022-07-09T00:43:48;23.11;76.58
64652;HTU21D;51062;45.120;37.660;2022-07-09T00:46:15;23.08;76.52
64652;HTU21D;51062;45.120;37.660;2022-07-09T00:48:41;23.02;76.60
64652;HTU21D;51062;45.120;37.660;2022-07-09T00:51:09;23.00;76.67
64652;HTU21D;51062;45.120;37.660;2022-07-09T00:53:37;22.98;76.73
64652;HTU21D;51062;45.120;37.660;2022-07-09T00:56:04;22.95;76.74
64652;HTU21D;51062;45.120;37.660;2022-07-09T00:58:31;22.96;76.76
64652;HTU21D;51062;45.120;37.660;2022-07-09T01:00:58;22.95;76.79
64652;HTU21D;51062;45.120;37.660;2022-07-09T01:03:24;22.93;76.80
64652;HTU21D;51062;45.120;37.660;2022-07-09T01:05:50;22.92;76.82
64652;HTU21D;51062;45.120;37.660;2022-07-09T01:08:16;22.91;76.82
64652;HTU21D;51062;45.120;37.660;2022-07-09T01:10:43;22.88;76.86
64652;HTU21D;51062;45.120;37.660;2022-07-09T01:13:10;22.86;76.88
64652;HTU21D;51062;45.120;37.660;2022-07-09T01:15:37;22.86;76.91
64652;HTU21D;51062;45.120;37.660;2022-07-09T01:18:04;22.85;76.89
64652;HTU21D;51062;45.120;37.660;2022-07-09T01:20:31;22.83;76.87
64652;HTU21D;51062;45.120;37.660;2022-07-09T01:22:58;22.82;76.87
64652;HTU21D;51062;45.120;37.660;2022-07-09T01:25:38;22.82;76.92
64652;HTU21D;51062;45.120;37.660;2022-07-09T01:28:06;22.83;76.84
64652;HTU21D;51062;45.120;37.660;2022-07-09T01:30:34;22.82;76.82
64652;HTU21D;51062;45.120;37.660;2022-07-09T01:33:01;22.83;76.81
64652;HTU21D;51062;45.120;37.660;2022-07-09T01:35:27;22.83;76.77
64652;HTU21D;51062;45.120;37.660;2022-07-09T01:37:53;22.82;76.82
64652;HTU21D;51062;45.120;37.660;2022-07-09T01:40:21;22.81;76.86
64652;HTU21D;51062;45.120;37.660;2022-07-09T01:42:47;22.80;76.82
64652;HTU21D;51062;45.120;37.660;2022-07-09T01:45:14;22.78;76.79
64652;HTU21D;51062;45.120;37.660;2022-07-09T01:47:41;22.72;76.81
64652;HTU21D;51062;45.120;37.660;2022-07-09T01:50:07;22.69;76.91
64652;HTU21D;51062;45.120;37.660;2022-07-09T01:52:34;22.65;76.95
64652;HTU21D;51062;45.120;37.660;2022-07-09T01:55:00;22.64;76.93
64652;HTU21D;51062;45.120;37.660;2022-07-09T01:57:26;22.62;76.93
64652;HTU21D;51062;45.120;37.660;2022-07-09T01:59:52;22.60;76.92
64652;HTU21D;51062;45.120;37.660;2022-07-09T02:02:19;22.57;76.93
64652;HTU21D;51062;45.120;37.660;2022-07-09T02:04:46;22.54;76.97
64652;HTU21D;51062;45.120;37.660;2022-07-09T02:07:13;22.54;77.02
64652;HTU21D;51062;45.120;37.660;2022-07-09T02:09:40;22.53;77.00
64652;HTU21D;51062;45.120;37.660;2022-07-09T02:12:06;22.53;76.96
64652;HTU21D;51062;45.120;37.660;2022-07-09T02:14:32;22.52;76.96
64652;HTU21D;51062;45.120;37.660;2022-07-09T02:16:58;22.52;76.98
64652;HTU21D;51062;45.120;37.660;2022-07-09T02:19:25;22.49;76.98
64652;HTU21D;51062;45.120;37.660;2022-07-09T02:21:51;22.47;77.01
64652;HTU21D;51062;45.120;37.660;2022-07-09T02:24:17;22.47;77.07
64652;HTU21D;51062;45.120;37.660;2022-07-09T02:26:43;22.47;77.04
64652;HTU21D;51062;45.120;37.660;2022-07-09T02:29:09;22.47;77.02
64652;HTU21D;51062;45.120;37.660;2022-07-09T02:31:35;22.46;77.06
64652;HTU21D;51062;45.120;37.660;2022-07-09T02:34:01;22.49;77.08
64652;HTU21D;51062;45.120;37.660;2022-07-09T02:36:27;22.51;77.06
64652;HTU21D;51062;45.120;37.660;2022-07-09T02:38:53;22.51;77.11
64652;HTU21D;51062;45.120;37.660;2022-07-09T02:41:19;22.54;77.17
64652;HTU21D;51062;45.120;37.660;2022-07-09T02:43:45;22.57;77.18
64652;HTU21D;51062;45.120;37.660;2022-07-09T02:46:12;22.62;77.21
64652;HTU21D;51062;45.120;37.660;2022-07-09T02:48:38;22.63;77.21
64652;HTU21D;51062;45.120;37.660;2022-07-09T02:51:05;22.67;77.33
64652;HTU21D;51062;45.120;37.660;2022-07-09T02:53:31;22.69;77.40
64652;HTU21D;51062;45.120;37.660;2022-07-09T02:55:57;22.76;77.40
64652;HTU21D;51062;45.120;37.660;2022-07-09T02:58:23;22.82;77.31
64652;HTU21D;51062;45.120;37.660;2022-07-09T03:00:49;22.86;77.30
64652;HTU21D;51062;45.120;37.660;2022-07-09T03:03:15;23.03;77.52
64652;HTU21D;51062;45.120;37.660;2022-07-09T03:05:42;23.34;77.31
64652;HTU21D;51062;45.120;37.660;2022-07-09T03:08:08;23.65;77.02
64652;HTU21D;51062;45.120;37.660;2022-07-09T03:10:35;23.96;76.93
64652;HTU21D;51062;45.120;37.660;2022-07-09T03:13:21;24.41;77.03
64652;HTU21D;51062;45.120;37.660;2022-07-09T03:15:47;24.85;77.02
64652;HTU21D;51062;45.120;37.660;2022-07-09T03:18:13;25.32;76.66
64652;HTU21D;51062;45.120;37.660;2022-07-09T03:20:40;25.77;76.24
64652;HTU21D;51062;45.120;37.660;2022-07-09T03:23:06;26.21;75.73
64652;HTU21D;51062;45.120;37.660;2022-07-09T03:25:33;26.66;75.12
64652;HTU21D;51062;45.120;37.660;2022-07-09T03:27:59;27.08;74.31
64652;HTU21D;51062;45.120;37.660;2022-07-09T03:30:25;27.46;73.38
64652;HTU21D;51062;45.120;37.660;2022-07-09T03:32:51;27.86;72.36
64652;HTU21D;51062;45.120;37.660;2022-07-09T03:35:18;28.26;71.18
64652;HTU21D;51062;45.120;37.660;2022-07-09T03:37:44;28.59;70.00
64652;HTU21D;51062;45.120;37.660;2022-07-09T03:40:10;28.84;69.06
64652;HTU21D;51062;45.120;37.660;2022-07-09T03:42:36;29.06;68.53
64652;HTU21D;51062;45.120;37.660;2022-07-09T03:45:03;29.28;67.92
64652;HTU21D;51062;45.120;37.660;2022-07-09T03:47:29;29.39;67.10
64652;HTU21D;51062;45.120;37.660;2022-07-09T03:49:55;29.49;66.67
64652;HTU21D;51062;45.120;37.660;2022-07-09T03:52:22;29.66;66.43
64652;HTU21D;51062;45.120;37.660;2022-07-09T03:54:48;29.90;65.60
64652;HTU21D;51062;45.120;37.660;2022-07-09T03:57:14;29.96;64.66
64652;HTU21D;51062;45.120;37.660;2022-07-09T03:59:40;29.75;64.37
64652;HTU21D;51062;45.120;37.660;2022-07-09T04:02:06;29.34;64.13
64652;HTU21D;51062;45.120;37.660;2022-07-09T04:04:33;28.95;64.36
64652;HTU21D;51062;45.120;37.660;2022-07-09T04:06:59;28.59;64.82
64652;HTU21D;51062;45.120;37.660;2022-07-09T04:09:25;28.28;65.08
64652;HTU21D;51062;45.120;37.660;2022-07-09T04:11:51;28.00;65.34
64652;HTU21D;51062;45.120;37.660;2022-07-09T04:14:17;27.75;65.66
64652;HTU21D;51062;45.120;37.660;2022-07-09T04:16:46;27.51;65.95
64652;HTU21D;51062;45.120;37.660;2022-07-09T04:19:12;27.30;66.33
64652;HTU21D;51062;45.120;37.660;2022-07-09T04:21:38;27.19;66.65
64652;HTU21D;51062;45.120;37.660;2022-07-09T04:24:04;27.13;66.81
64652;HTU21D;51062;45.120;37.660;2022-07-09T04:26:31;27.10;66.96
64652;HTU21D;51062;45.120;37.660;2022-07-09T04:28:57;27.07;67.16
64652;HTU21D;51062;45.120;37.660;2022-07-09T04:31:23;27.08;67.27
64652;HTU21D;51062;45.120;37.660;2022-07-09T04:33:49;27.13;67.46
64652;HTU21D;51062;45.120;37.660;2022-07-09T04:36:15;27.35;67.45
64652;HTU21D;51062;45.120;37.660;2022-07-09T04:38:42;27.45;67.21
64652;HTU21D;51062;45.120;37.660;2022-07-09T04:41:08;27.47;67.16
64652;HTU21D;51062;45.120;37.660;2022-07-09T04:43:34;27.50;67.03
64652;HTU21D;51062;45.120;37.660;2022-07-09T04:46:00;27.52;67.07
64652;HTU21D;51062;45.120;37.660;2022-07-09T04:48:27;27.55;66.97
64652;HTU21D;51062;45.120;37.660;2022-07-09T04:50:53;27.52;66.78
64652;HTU21D;51062;45.120;37.660;2022-07-09T04:53:19;27.44;66.85
64652;HTU21D;51062;45.120;37.660;2022-07-09T04:55:45;27.40;66.84
64652;HTU21D;51062;45.120;37.660;2022-07-09T04:58:11;27.42;66.72
64652;HTU21D;51062;45.120;37.660;2022-07-09T05:00:37;27.44;66.68
64652;HTU21D;51062;45.120;37.660;2022-07-09T05:03:03;27.51;66.66
64652;HTU21D;51062;45.120;37.660;2022-07-09T05:05:29;27.63;66.54
64652;HTU21D;51062;45.120;37.660;2022-07-09T05:07:55;27.72;66.43
64652;HTU21D;51062;45.120;37.660;2022-07-09T05:10:22;27.86;66.60
64652;HTU21D;51062;45.120;37.660;2022-07-09T05:12:48;28.32;66.47
64652;HTU21D;51062;45.120;37.660;2022-07-09T05:15:14;29.07;66.00
64652;HTU21D;51062;45.120;37.660;2022-07-09T05:17:40;29.96;64.72
64652;HTU21D;51062;45.120;37.660;2022-07-09T05:20:08;30.91;63.71
64652;HTU21D;51062;45.120;37.660;2022-07-09T05:22:36;31.74;61.86
64652;HTU21D;51062;45.120;37.660;2022-07-09T05:25:04;32.37;59.98
64652;HTU21D;51062;45.120;37.660;2022-07-09T05:27:30;32.87;58.48
64652;HTU21D;51062;45.120;37.660;2022-07-09T05:29:56;33.30;56.85
64652;HTU21D;51062;45.120;37.660;2022-07-09T05:32:22;33.68;55.45
64652;HTU21D;51062;45.120;37.660;2022-07-09T05:34:49;34.01;54.81
64652;HTU21D;51062;45.120;37.660;2022-07-09T05:37:15;34.35;53.71
64652;HTU21D;51062;45.120;37.660;2022-07-09T05:39:41;34.70;52.84
64652;HTU21D;51062;45.120;37.660;2022-07-09T05:42:07;34.82;52.02
64652;HTU21D;51062;45.120;37.660;2022-07-09T05:44:33;35.01;51.15
64652;HTU21D;51062;45.120;37.660;2022-07-09T05:46:59;35.18;49.83
64652;HTU21D;51062;45.120;37.660;2022-07-09T05:49:27;35.40;49.14
64652;HTU21D;51062;45.120;37.660;2022-07-09T05:51:53;35.65;48.20
64652;HTU21D;51062;45.120;37.660;2022-07-09T05:54:19;35.67;47.19
64652;HTU21D;51062;45.120;37.660;2022-07-09T05:56:45;35.37;46.32
64652;HTU21D;51062;45.120;37.660;2022-07-09T05:59:11;35.07;47.04
64652;HTU21D;51062;45.120;37.660;2022-07-09T06:01:38;35.13;46.91
64652;HTU21D;51062;45.120;37.660;2022-07-09T06:04:08;35.47;46.02
64652;HTU21D;51062;45.120;37.660;2022-07-09T06:06:35;35.81;44.75
64652;HTU21D;51062;45.120;37.660;2022-07-09T06:09:01;36.04;44.84
64652;HTU21D;51062;45.120;37.660;2022-07-09T06:11:27;36.30;44.48
64652;HTU21D;51062;45.120;37.660;2022-07-09T06:13:54;36.52;44.34
64652;HTU21D;51062;45.120;37.660;2022-07-09T06:16:20;36.52;44.36
64652;HTU21D;51062;45.120;37.660;2022-07-09T06:18:46;36.43;44.16
64652;HTU21D;51062;45.120;37.660;2022-07-09T06:21:12;35.74;44.38
64652;HTU21D;51062;45.120;37.660;2022-07-09T06:23:38;35.15;45.45
64652;HTU21D;51062;45.120;37.660;2022-07-09T06:26:04;34.53;46.12
64652;HTU21D;51062;45.120;37.660;2022-07-09T06:28:31;34.21;46.80
64652;HTU21D;51062;45.120;37.660;2022-07-09T06:30:57;33.87;46.96
64652;HTU21D;51062;45.120;37.660;2022-07-09T06:33:23;33.45;47.30
64652;HTU21D;51062;45.120;37.660;2022-07-09T06:35:49;33.13;48.22
64652;HTU21D;51062;45.120;37.660;2022-07-09T06:38:15;32.78;48.77
64652;HTU21D;51062;45.120;37.660;2022-07-09T06:40:41;32.68;49.94
64652;HTU21D;51062;45.120;37.660;2022-07-09T06:43:07;33.23;50.11
64652;HTU21D;51062;45.120;37.660;2022-07-09T06:45:43;33.87;48.47
64652;HTU21D;51062;45.120;37.660;2022-07-09T06:48:09;33.83;48.41
64652;HTU21D;51062;45.120;37.660;2022-07-09T06:50:35;34.26;48.25
64652;HTU21D;51062;45.120;37.660;2022-07-09T06:53:01;34.51;47.21
64652;HTU21D;51062;45.120;37.660;2022-07-09T06:55:27;34.80;47.03
64652;HTU21D;51062;45.120;37.660;2022-07-09T06:57:53;35.24;46.15
64652;HTU21D;51062;45.120;37.660;2022-07-09T07:00:19;35.71;45.48
64652;HTU21D;51062;45.120;37.660;2022-07-09T07:02:46;36.12;44.84
64652;HTU21D;51062;45.120;37.660;2022-07-09T07:05:12;36.42;43.85
64652;HTU21D;51062;45.120;37.660;2022-07-09T07:07:38;36.63;43.29
64652;HTU21D;51062;45.120;37.660;2022-07-09T07:10:04;36.76;43.00
64652;HTU21D;51062;45.120;37.660;2022-07-09T07:12:30;36.98;42.29
64652;HTU21D;51062;45.120;37.660;2022-07-09T07:14:56;37.05;41.90
64652;HTU21D;51062;45.120;37.660;2022-07-09T07:17:23;37.17;41.33
64652;HTU21D;51062;45.120;37.660;2022-07-09T07:19:49;37.31;40.83
64652;HTU21D;51062;45.120;37.660;2022-07-09T07:22:15;37.44;40.28
64652;HTU21D;51062;45.120;37.660;2022-07-09T07:24:41;37.49;40.13
64652;HTU21D;51062;45.120;37.660;2022-07-09T07:27:07;37.59;39.80
64652;HTU21D;51062;45.120;37.660;2022-07-09T07:29:33;37.63;39.37
64652;HTU21D;51062;45.120;37.660;2022-07-09T07:31:59;37.69;39.20
64652;HTU21D;51062;45.120;37.660;2022-07-09T07:34:25;37.71;38.72
64652;HTU21D;51062;45.120;37.660;2022-07-09T07:36:52;37.56;37.99
64652;HTU21D;51062;45.120;37.660;2022-07-09T07:39:19;37.38;38.60
64652;HTU21D;51062;45.120;37.660;2022-07-09T07:41:48;37.31;39.03
64652;HTU21D;51062;45.120;37.660;2022-07-09T07:44:14;37.31;38.46
64652;HTU21D;51062;45.120;37.660;2022-07-09T07:46:40;37.35;38.41
64652;HTU21D;51062;45.120;37.660;2022-07-09T07:49:06;37.38;38.14
64652;HTU21D;51062;45.120;37.660;2022-07-09T07:51:32;37.40;38.17
64652;HTU21D;51062;45.120;37.660;2022-07-09T07:53:58;37.40;38.51
64652;HTU21D;51062;45.120;37.660;2022-07-09T07:56:24;37.36;38.94
64652;HTU21D;51062;45.120;37.660;2022-07-09T07:58:50;37.37;38.74
64652;HTU21D;51062;45.120;37.660;2022-07-09T08:01:17;37.32;38.56
64652;HTU21D;51062;45.120;37.660;2022-07-09T08:03:43;37.23;38.93
64652;HTU21D;51062;45.120;37.660;2022-07-09T08:06:09;37.13;39.23
64652;HTU21D;51062;45.120;37.660;2022-07-09T08:08:35;36.96;38.95
64652;HTU21D;51062;45.120;37.660;2022-07-09T08:11:01;36.44;38.70
64652;HTU21D;51062;45.120;37.660;2022-07-09T08:13:28;35.69;40.24
64652;HTU21D;51062;45.120;37.660;2022-07-09T08:15:55;35.15;40.75
64652;HTU21D;51062;45.120;37.660;2022-07-09T08:18:21;34.75;41.36
64652;HTU21D;51062;45.120;37.660;2022-07-09T08:20:47;34.36;41.71
64652;HTU21D;51062;45.120;37.660;2022-07-09T08:23:15;34.01;42.32
64652;HTU21D;51062;45.120;37.660;2022-07-09T08:25:41;33.80;42.69
64652;HTU21D;51062;45.120;37.660;2022-07-09T08:28:07;33.58;43.62
64652;HTU21D;51062;45.120;37.660;2022-07-09T08:30:33;33.41;44.22
64652;HTU21D;51062;45.120;37.660;2022-07-09T08:32:59;33.35;44.29
64652;HTU21D;51062;45.120;37.660;2022-07-09T08:35:26;33.35;44.19
64652;HTU21D;51062;45.120;37.660;2022-07-09T08:37:53;33.19;44.48
64652;HTU21D;51062;45.120;37.660;2022-07-09T08:40:20;32.93;45.03
64652;HTU21D;51062;45.120;37.660;2022-07-09T08:42:47;32.83;45.32
64652;HTU21D;51062;45.120;37.660;2022-07-09T08:45:14;32.96;45.99
64652;HTU21D;51062;45.120;37.660;2022-07-09T08:47:42;33.17;45.35
64652;HTU21D;51062;45.120;37.660;2022-07-09T08:50:09;33.40;45.04
64652;HTU21D;51062;45.120;37.660;2022-07-09T08:52:36;33.57;44.99
64652;HTU21D;51062;45.120;37.660;2022-07-09T08:55:05;33.51;44.52
64652;HTU21D;51062;45.120;37.660;2022-07-09T08:57:33;33.30;44.96
64652;HTU21D;51062;45.120;37.660;2022-07-09T09:00:00;33.11;45.28
64652;HTU21D;51062;45.120;37.660;2022-07-09T09:02:34;32.98;45.61
64652;HTU21D;51062;45.120;37.660;2022-07-09T09:05:09;32.87;46.02
64652;HTU21D;51062;45.120;37.660;2022-07-09T09:07:35;32.88;46.13
64652;HTU21D;51062;45.120;37.660;2022-07-09T09:10:01;32.89;46.08
64652;HTU21D;51062;45.120;37.660;2022-07-09T09:12:28;32.71;45.86
64652;HTU21D;51062;45.120;37.660;2022-07-09T09:14:55;32.46;46.22
64652;HTU21D;51062;45.120;37.660;2022-07-09T09:17:21;32.20;46.54
64652;HTU21D;51062;45.120;37.660;2022-07-09T09:19:48;32.00;47.01
64652;HTU21D;51062;45.120;37.660;2022-07-09T09:22:17;31.82;47.58
64652;HTU21D;51062;45.120;37.660;2022-07-09T09:24:48;31.59;47.94
64652;HTU21D;51062;45.120;37.660;2022-07-09T09:27:14;31.41;48.31
64652;HTU21D;51062;45.120;37.660;2022-07-09T09:29:49;31.29;48.77
64652;HTU21D;51062;45.120;37.660;2022-07-09T09:32:19;31.19;49.20
64652;HTU21D;51062;45.120;37.660;2022-07-09T09:34:50;31.06;49.55
64652;HTU21D;51062;45.120;37.660;2022-07-09T09:37:27;30.97;49.78
64652;HTU21D;51062;45.120;37.660;2022-07-09T09:39:53;30.93;49.94
64652;HTU21D;51062;45.120;37.660;2022-07-09T09:42:23;30.89;50.11
64652;HTU21D;51062;45.120;37.660;2022-07-09T09:44:50;30.87;50.13
64652;HTU21D;51062;45.120;37.660;2022-07-09T09:47:20;30.90;50.29
64652;HTU21D;51062;45.120;37.660;2022-07-09T09:49:48;30.95;50.50
64652;HTU21D;51062;45.120;37.660;2022-07-09T09:52:15;30.94;50.51
64652;HTU21D;51062;45.120;37.660;2022-07-09T09:54:44;30.85;50.63
64652;HTU21D;51062;45.120;37.660;2022-07-09T09:57:13;30.75;50.48
64652;HTU21D;51062;45.120;37.660;2022-07-09T09:59:41;30.64;50.75
64652;HTU21D;51062;45.120;37.660;2022-07-09T10:02:09;30.56;50.75
64652;HTU21D;51062;45.120;37.660;2022-07-09T10:04:36;30.47;50.99
64652;HTU21D;51062;45.120;37.660;2022-07-09T10:07:04;30.39;51.17
64652;HTU21D;51062;45.120;37.660;2022-07-09T10:09:30;30.32;51.24
64652;HTU21D;51062;45.120;37.660;2022-07-09T10:11:56;30.31;51.55
64652;HTU21D;51062;45.120;37.660;2022-07-09T10:16:54;30.80;51.85
64652;HTU21D;51062;45.120;37.660;2022-07-09T10:19:30;30.99;51.35
64652;HTU21D;51062;45.120;37.660;2022-07-09T10:21:59;31.02;51.45
64652;HTU21D;51062;45.120;37.660;2022-07-09T10:24:27;30.94;51.59
64652;HTU21D;51062;45.120;37.660;2022-07-09T10:27:08;30.81;51.87
64652;HTU21D;51062;45.120;37.660;2022-07-09T10:29:36;30.69;52.20
64652;HTU21D;51062;45.120;37.660;2022-07-09T10:32:03;30.56;52.28
64652;HTU21D;51062;45.120;37.660;2022-07-09T10:40:13;30.41;53.14
64652;HTU21D;51062;45.120;37.660;2022-07-09T10:42:41;30.37;53.33
64652;HTU21D;51062;45.120;37.660;2022-07-09T10:45:25;30.31;53.58
64652;HTU21D;51062;45.120;37.660;2022-07-09T10:47:59;30.21;53.52
64652;HTU21D;51062;45.120;37.660;2022-07-09T10:50:28;30.12;53.84
64652;HTU21D;51062;45.120;37.660;2022-07-09T10:52:55;30.06;54.17
64652;HTU21D;51062;45.120;37.660;2022-07-09T10:55:26;30.00;54.46
64652;HTU21D;51062;45.120;37.660;2022-07-09T10:57:53;29.95;54.65
64652;HTU21D;51062;45.120;37.660;2022-07-09T11:00:22;29.86;54.93
64652;HTU21D;51062;45.120;37.660;2022-07-09T11:03:00;29.71;55.36
64652;HTU21D;51062;45.120;37.660;2022-07-09T11:08:22;29.67;56.23
64652;HTU21D;51062;45.120;37.660;2022-07-09T11:10:48;29.83;56.52
64652;HTU21D;51062;45.120;37.660;2022-07-09T11:13:14;29.89;56.45
64652;HTU21D;51062;45.120;37.660;2022-07-09T11:15:40;29.78;56.42
64652;HTU21D;51062;45.120;37.660;2022-07-09T11:18:08;29.61;56.57
64652;HTU21D;51062;45.120;37.660;2022-07-09T11:23:14;29.28;55.99
64652;HTU21D;51062;45.120;37.660;2022-07-09T11:25:40;29.26;56.03
64652;HTU21D;51062;45.120;37.660;2022-07-09T11:28:07;29.41;55.58
64652;HTU21D;51062;45.120;37.660;2022-07-09T11:30:34;29.57;55.32
64652;HTU21D;51062;45.120;37.660;2022-07-09T11:33:02;29.63;55.48
64652;HTU21D;51062;45.120;37.660;2022-07-09T11:35:32;29.77;55.68
64652;HTU21D;51062;45.120;37.660;2022-07-09T11:38:01;29.90;55.60
64652;HTU21D;51062;45.120;37.660;2022-07-09T11:40:28;29.94;55.81
64652;HTU21D;51062;45.120;37.660;2022-07-09T11:42:54;30.09;56.13
64652;HTU21D;51062;45.120;37.660;2022-07-09T11:45:25;30.17;55.99
64652;HTU21D;51062;45.120;37.660;2022-07-09T11:48:04;30.00;56.16
64652;HTU21D;51062;45.120;37.660;2022-07-09T11:50:31;29.85;56.35
64652;HTU21D;51062;45.120;37.660;2022-07-09T11:52:57;29.70;56.55
64652;HTU21D;51062;45.120;37.660;2022-07-09T11:55:31;29.66;56.85
64652;HTU21D;51062;45.120;37.660;2022-07-09T11:57:59;29.72;56.64
64652;HTU21D;51062;45.120;37.660;2022-07-09T12:00:30;29.73;56.34
64652;HTU21D;51062;45.120;37.660;2022-07-09T12:02:57;29.73;56.06
64652;HTU21D;51062;45.120;37.660;2022-07-09T12:08:00;29.71;55.38
64652;HTU21D;51062;45.120;37.660;2022-07-09T12:10:32;29.71;55.30
64652;HTU21D;51062;45.120;37.660;2022-07-09T12:12:59;29.75;55.40
64652;HTU21D;51062;45.120;37.660;2022-07-09T12:15:26;29.83;55.27
64652;HTU21D;51062;45.120;37.660;2022-07-09T12:17:58;29.90;55.42
64652;HTU21D;51062;45.120;37.660;2022-07-09T12:20:29;29.98;55.40
64652;HTU21D;51062;45.120;37.660;2022-07-09T12:22:55;30.07;55.65
64652;HTU21D;51062;45.120;37.660;2022-07-09T12:25:21;30.15;55.87
64652;HTU21D;51062;45.120;37.660;2022-07-09T12:27:48;30.21;55.80
64652;HTU21D;51062;45.120;37.660;2022-07-09T12:30:17;30.28;56.09
64652;HTU21D;51062;45.120;37.660;2022-07-09T12:32:44;30.40;55.99
64652;HTU21D;51062;45.120;37.660;2022-07-09T12:35:11;30.39;55.62
64652;HTU21D;51062;45.120;37.660;2022-07-09T12:37:38;30.32;55.71
64652;HTU21D;51062;45.120;37.660;2022-07-09T12:40:06;30.28;56.15
64652;HTU21D;51062;45.120;37.660;2022-07-09T12:42:32;30.33;56.25
64652;HTU21D;51062;45.120;37.660;2022-07-09T12:44:59;30.39;56.40
64652;HTU21D;51062;45.120;37.660;2022-07-09T12:47:26;30.44;56.23
64652;HTU21D;51062;45.120;37.660;2022-07-09T12:49:52;30.47;56.13
64652;HTU21D;51062;45.120;37.660;2022-07-09T12:52:18;30.52;56.13
64652;HTU21D;51062;45.120;37.660;2022-07-09T12:54:44;30.54;55.84
64652;HTU21D;51062;45.120;37.660;2022-07-09T12:57:10;30.50;55.59
64652;HTU21D;51062;45.120;37.660;2022-07-09T12:59:37;30.34;55.51
64652;HTU21D;51062;45.120;37.660;2022-07-09T13:02:04;30.17;55.58
64652;HTU21D;51062;45.120;37.660;2022-07-09T13:04:31;30.07;55.86
64652;HTU21D;51062;45.120;37.660;2022-07-09T13:06:58;30.09;55.87
64652;HTU21D;51062;45.120;37.660;2022-07-09T13:09:24;30.15;55.92
64652;HTU21D;51062;45.120;37.660;2022-07-09T13:11:50;30.17;55.83
64652;HTU21D;51062;45.120;37.660;2022-07-09T13:14:16;30.12;55.88
64652;HTU21D;51062;45.120;37.660;2022-07-09T13:16:42;30.04;55.68
64652;HTU21D;51062;45.120;37.660;2022-07-09T13:19:09;29.96;55.77
64652;HTU21D;51062;45.120;37.660;2022-07-09T13:21:35;29.93;55.56
64652;HTU21D;51062;45.120;37.660;2022-07-09T13:24:01;29.93;55.45
64652;HTU21D;51062;45.120;37.660;2022-07-09T13:26:28;29.98;55.29
64652;HTU21D;51062;45.120;37.660;2022-07-09T13:28:54;30.02;55.00
64652;HTU21D;51062;45.120;37.660;2022-07-09T13:31:20;30.05;54.94
64652;HTU21D;51062;45.120;37.660;2022-07-09T13:33:47;30.08;54.77
64652;HTU21D;51062;45.120;37.660;2022-07-09T13:36:14;30.10;54.47
64652;HTU21D;51062;45.120;37.660;2022-07-09T13:38:40;30.08;54.47
64652;HTU21D;51062;45.120;37.660;2022-07-09T13:41:06;30.08;54.55
64652;HTU21D;51062;45.120;37.660;2022-07-09T13:43:32;30.10;54.53
64652;HTU21D;51062;45.120;37.660;2022-07-09T13:45:59;30.09;54.30
64652;HTU21D;51062;45.120;37.660;2022-07-09T13:48:26;30.06;54.39
64652;HTU21D;51062;45.120;37.660;2022-07-09T13:50:53;30.10;54.51
64652;HTU21D;51062;45.120;37.660;2022-07-09T13:53:19;30.11;54.31
64652;HTU21D;51062;45.120;37.660;2022-07-09T13:55:46;30.12;54.28
64652;HTU21D;51062;45.120;37.660;2022-07-09T13:58:12;30.13;54.33
64652;HTU21D;51062;45.120;37.660;2022-07-09T14:00:39;30.16;54.36
64652;HTU21D;51062;45.120;37.660;2022-07-09T14:03:05;30.13;54.40
64652;HTU21D;51062;45.120;37.660;2022-07-09T14:05:31;30.13;54.19
64652;HTU21D;51062;45.120;37.660;2022-07-09T14:07:57;30.12;54.15
64652;HTU21D;51062;45.120;37.660;2022-07-09T14:10:26;30.11;54.24
64652;HTU21D;51062;45.120;37.660;2022-07-09T14:12:52;30.11;54.10
64652;HTU21D;51062;45.120;37.660;2022-07-09T14:15:18;30.00;53.79
64652;HTU21D;51062;45.120;37.660;2022-07-09T14:17:44;29.93;53.93
64652;HTU21D;51062;45.120;37.660;2022-07-09T14:20:11;29.93;53.89
64652;HTU21D;51062;45.120;37.660;2022-07-09T14:22:37;29.93;53.78
64652;HTU21D;51062;45.120;37.660;2022-07-09T14:25:03;29.89;53.82
64652;HTU21D;51062;45.120;37.660;2022-07-09T14:27:30;29.86;54.07
64652;HTU21D;51062;45.120;37.660;2022-07-09T14:29:56;29.85;53.94
64652;HTU21D;51062;45.120;37.660;2022-07-09T14:32:23;29.85;53.95
64652;HTU21D;51062;45.120;37.660;2022-07-09T14:34:49;29.85;54.07
64652;HTU21D;51062;45.120;37.660;2022-07-09T14:37:16;29.86;54.17
64652;HTU21D;51062;45.120;37.660;2022-07-09T14:39:42;29.86;54.19
64652;HTU21D;51062;45.120;37.660;2022-07-09T14:42:08;29.82;54.24
64652;HTU21D;51062;45.120;37.660;2022-07-09T14:44:34;29.81;54.39
64652;HTU21D;51062;45.120;37.660;2022-07-09T14:47:00;29.82;54.48
64652;HTU21D;51062;45.120;37.660;2022-07-09T14:49:27;29.83;54.43
64652;HTU21D;51062;45.120;37.660;2022-07-09T14:51:55;29.83;54.39
64652;HTU21D;51062;45.120;37.660;2022-07-09T14:54:21;29.87;54.59
64652;HTU21D;51062;45.120;37.660;2022-07-09T14:56:47;29.94;54.54
64652;HTU21D;51062;45.120;37.660;2022-07-09T14:59:14;29.93;54.42
64652;HTU21D;51062;45.120;37.660;2022-07-09T15:01:45;29.88;54.41
64652;HTU21D;51062;45.120;37.660;2022-07-09T15:04:12;29.81;54.39
64652;HTU21D;51062;45.120;37.660;2022-07-09T15:06:38;29.75;54.51
64652;HTU21D;51062;45.120;37.660;2022-07-09T15:09:04;29.67;54.52
64652;HTU21D;51062;45.120;37.660;2022-07-09T15:11:30;29.61;54.67
64652;HTU21D;51062;45.120;37.660;2022-07-09T15:13:56;29.59;54.76
64652;HTU21D;51062;45.120;37.660;2022-07-09T15:16:22;29.59;54.88
64652;HTU21D;51062;45.120;37.660;2022-07-09T15:18:49;29.57;55.00